createdAt,value
2022-08-11T00:01:23.713Z,20.16
2022-08-11T00:02:23.290Z,20.29
2022-08-11T00:04:27.757Z,20.28
2022-08-11T00:05:27.317Z,20.14
2022-08-11T00:07:20.265Z,20.08
2022-08-11T00:08:20.275Z,20.16
2022-08-11T00:10:25.277Z,20.10
2022-08-11T00:11:26.961Z,20.08
2022-08-11T00:13:28.354Z,20.08
2022-08-11T00:14:37.456Z,20.08
2022-08-11T00:16:32.883Z,20.03
2022-08-11T00:17:32.416Z,19.95
2022-08-11T00:20:12.111Z,19.95
2022-08-11T00:20:36.472Z,19.95
2022-08-11T00:22:41.019Z,19.95
2022-08-11T00:23:40.519Z,19.96
2022-08-11T00:25:44.542Z,19.86
2022-08-11T00:26:44.561Z,19.86
2022-08-11T00:28:49.056Z,19.87
2022-08-11T00:29:51.629Z,19.80
2022-08-11T00:31:52.643Z,19.83
2022-08-11T00:32:52.661Z,19.77
2022-08-11T00:35:49.962Z,19.73
2022-08-11T00:35:57.836Z,19.71
2022-08-11T00:36:56.729Z,19.69
2022-08-11T00:37:56.763Z,19.68
2022-08-11T00:38:56.799Z,19.59
2022-08-11T00:39:56.913Z,19.58
2022-08-11T00:40:56.843Z,19.55
2022-08-11T00:41:56.967Z,19.55
2022-08-11T00:42:56.900Z,19.56
2022-08-11T00:43:56.929Z,19.50
2022-08-11T00:44:56.954Z,19.50
2022-08-11T00:45:56.985Z,19.48
2022-08-11T00:46:57.007Z,19.54
2022-08-11T00:48:00.193Z,19.47
2022-08-11T00:48:57.068Z,19.48
2022-08-11T00:49:57.091Z,19.48
2022-08-11T00:50:57.124Z,19.47
2022-08-11T00:52:05.785Z,19.48
2022-08-11T00:52:57.173Z,19.44
2022-08-11T00:53:57.204Z,19.33
2022-08-11T00:54:57.228Z,19.43
2022-08-11T00:55:57.258Z,19.36
2022-08-11T00:56:57.283Z,19.37
2022-08-11T00:57:57.316Z,19.33
2022-08-11T00:58:57.343Z,19.36
2022-08-11T00:59:57.364Z,19.31
2022-08-11T01:00:57.443Z,19.32
2022-08-11T01:01:57.424Z,19.32
2022-08-11T01:02:57.453Z,19.25
2022-08-11T01:03:57.485Z,19.25
2022-08-11T01:04:57.544Z,19.23
2022-08-11T01:05:57.534Z,19.22
2022-08-11T01:06:57.563Z,19.21
2022-08-11T01:07:59.054Z,19.29
2022-08-11T01:08:57.612Z,19.18
2022-08-11T01:09:57.640Z,19.26
2022-08-11T01:10:57.667Z,19.21
2022-08-11T01:11:57.694Z,19.22
2022-08-11T01:12:57.720Z,19.14
2022-08-11T01:13:57.750Z,19.10
2022-08-11T01:14:57.779Z,19.10
2022-08-11T01:15:57.803Z,19.16
2022-08-11T01:16:57.833Z,19.10
2022-08-11T01:17:57.860Z,19.14
2022-08-11T01:18:57.886Z,19.06
2022-08-11T01:20:46.043Z,19.00
2022-08-11T01:20:57.943Z,19.00
2022-08-11T01:21:57.968Z,18.99
2022-08-11T01:22:57.993Z,18.99
2022-08-11T01:23:58.021Z,18.95
2022-08-11T01:24:58.050Z,18.98
2022-08-11T01:25:58.076Z,18.95
2022-08-11T01:26:58.106Z,18.95
2022-08-11T01:27:58.132Z,18.85
2022-08-11T01:28:58.175Z,18.87
2022-08-11T01:29:58.187Z,18.99
2022-08-11T01:30:58.213Z,18.88
2022-08-11T01:31:58.241Z,18.88
2022-08-11T01:32:58.267Z,18.84
2022-08-11T01:33:58.295Z,18.87
2022-08-11T01:34:58.328Z,18.80
2022-08-11T01:35:58.349Z,18.84
2022-08-11T01:36:58.377Z,18.88
2022-08-11T01:37:58.411Z,18.90
2022-08-11T01:38:58.432Z,18.82
2022-08-11T01:39:58.511Z,18.85
2022-08-11T01:40:58.486Z,18.76
2022-08-11T01:41:58.513Z,18.80
2022-08-11T01:42:58.541Z,18.80
2022-08-11T01:43:58.566Z,18.70
2022-08-11T01:44:58.594Z,18.73
2022-08-11T01:45:58.619Z,18.66
2022-08-11T01:46:58.647Z,18.57
2022-08-11T01:47:58.671Z,18.70
2022-08-11T01:48:58.699Z,18.55
2022-08-11T01:50:08.094Z,18.55
2022-08-11T01:50:58.756Z,18.63
2022-08-11T01:51:58.786Z,18.67
2022-08-11T01:52:58.808Z,18.55
2022-08-11T01:53:58.838Z,18.52
2022-08-11T01:54:58.869Z,18.58
2022-08-11T01:55:58.892Z,18.55
2022-08-11T01:56:58.920Z,18.52
2022-08-11T01:57:58.943Z,18.48
2022-08-11T01:58:58.975Z,18.50
2022-08-11T01:59:58.997Z,18.54
2022-08-11T02:00:59.106Z,18.45
2022-08-11T02:01:59.053Z,18.48
2022-08-11T02:02:59.082Z,18.48
2022-08-11T02:03:59.108Z,18.44
2022-08-11T02:04:59.134Z,18.48
2022-08-11T02:05:59.163Z,18.47
2022-08-11T02:06:59.192Z,18.47
2022-08-11T02:07:59.213Z,18.47
2022-08-11T02:08:59.241Z,18.42
2022-08-11T02:09:59.269Z,18.44
2022-08-11T02:10:59.296Z,18.44
2022-08-11T02:11:59.321Z,18.37
2022-08-11T02:12:59.360Z,18.42
2022-08-11T02:13:59.379Z,18.47
2022-08-11T02:15:05.129Z,18.36
2022-08-11T02:15:59.432Z,18.37
2022-08-11T02:16:59.466Z,18.41
2022-08-11T02:17:59.487Z,18.32
2022-08-11T02:18:59.517Z,18.37
2022-08-11T02:19:59.540Z,18.29
2022-08-11T02:20:59.573Z,18.29
2022-08-11T02:21:59.592Z,18.29
2022-08-11T02:22:59.619Z,18.25
2022-08-11T02:24:05.496Z,18.26
2022-08-11T02:24:59.671Z,18.23
2022-08-11T02:25:59.698Z,18.26
2022-08-11T02:26:59.724Z,18.15
2022-08-11T02:27:59.750Z,18.10
2022-08-11T02:28:59.778Z,18.18
2022-08-11T02:29:59.806Z,18.12
2022-08-11T02:30:59.832Z,18.11
2022-08-11T02:32:15.480Z,18.05
2022-08-11T02:32:59.884Z,18.08
2022-08-11T02:33:59.913Z,18.00
2022-08-11T02:35:00.754Z,17.95
2022-08-11T02:35:59.965Z,17.90
2022-08-11T02:36:59.989Z,17.99
2022-08-11T02:38:00.020Z,18.00
2022-08-11T02:39:00.046Z,17.99
2022-08-11T02:40:00.080Z,17.95
2022-08-11T02:41:00.099Z,17.96
2022-08-11T02:42:00.130Z,18.00
2022-08-11T02:43:00.153Z,17.95
2022-08-11T02:44:00.178Z,17.99
2022-08-11T02:45:00.210Z,17.92
2022-08-11T02:46:00.232Z,17.92
2022-08-11T02:47:00.265Z,17.93
2022-08-11T02:48:00.287Z,17.96
2022-08-11T02:49:00.309Z,17.93
2022-08-11T02:50:06.638Z,17.89
2022-08-11T02:51:00.365Z,17.93
2022-08-11T02:52:00.391Z,17.87
2022-08-11T02:53:00.419Z,17.95
2022-08-11T02:54:00.448Z,17.87
2022-08-11T02:55:00.471Z,17.89
2022-08-11T02:56:00.496Z,17.77
2022-08-11T02:57:00.524Z,17.75
2022-08-11T02:58:00.550Z,17.77
2022-08-11T02:59:00.575Z,17.74
2022-08-11T03:00:00.603Z,17.77
2022-08-11T03:01:00.631Z,17.77
2022-08-11T03:02:05.072Z,17.75
2022-08-11T03:03:00.685Z,17.77
2022-08-11T03:04:00.711Z,17.74
2022-08-11T03:05:00.735Z,17.71
2022-08-11T03:06:00.765Z,17.68
2022-08-11T03:07:00.790Z,17.74
2022-08-11T03:08:00.815Z,17.74
2022-08-11T03:09:00.842Z,17.70
2022-08-11T03:10:00.867Z,17.68
2022-08-11T03:11:00.894Z,17.68
2022-08-11T03:12:00.923Z,17.68
2022-08-11T03:13:00.954Z,17.62
2022-08-11T03:14:00.969Z,17.70
2022-08-11T03:15:01.002Z,17.64
2022-08-11T03:16:01.029Z,17.71
2022-08-11T03:17:01.055Z,17.66
2022-08-11T03:18:01.089Z,17.63
2022-08-11T03:19:01.104Z,17.63
2022-08-11T03:20:01.131Z,17.72
2022-08-11T03:21:01.159Z,17.58
2022-08-11T03:22:03.543Z,17.56
2022-08-11T03:23:01.212Z,17.55
2022-08-11T03:24:01.235Z,17.51
2022-08-11T03:25:01.266Z,17.58
2022-08-11T03:26:01.291Z,17.54
2022-08-11T03:27:01.317Z,17.62
2022-08-11T03:28:02.710Z,17.52
2022-08-11T03:29:01.369Z,17.58
2022-08-11T03:30:01.399Z,17.54
2022-08-11T03:31:01.423Z,17.59
2022-08-11T03:32:01.451Z,17.51
2022-08-11T03:33:01.475Z,17.59
2022-08-11T03:34:05.642Z,17.63
2022-08-11T03:35:01.562Z,17.59
2022-08-11T03:36:01.552Z,17.59
2022-08-11T03:37:17.020Z,17.58
2022-08-11T03:38:01.605Z,17.59
2022-08-11T03:39:01.632Z,17.56
2022-08-11T03:40:01.724Z,17.56
2022-08-11T03:41:01.686Z,17.62
2022-08-11T03:42:05.924Z,17.43
2022-08-11T03:43:01.737Z,17.49
2022-08-11T03:44:01.764Z,17.44
2022-08-11T03:45:01.792Z,17.41
2022-08-11T03:46:01.826Z,17.51
2022-08-11T03:47:01.842Z,17.43
2022-08-11T03:48:01.868Z,17.49
2022-08-11T03:49:01.898Z,17.40
2022-08-11T03:50:01.921Z,17.43
2022-08-11T03:51:01.945Z,17.40
2022-08-11T03:52:01.971Z,17.28
2022-08-11T03:53:02.000Z,17.40
2022-08-11T03:54:02.027Z,17.26
2022-08-11T03:55:02.055Z,17.25
2022-08-11T03:56:02.079Z,17.26
2022-08-11T03:57:02.106Z,17.30
2022-08-11T03:58:02.132Z,17.31
2022-08-11T03:59:02.156Z,17.33
2022-08-11T04:00:02.191Z,17.34
2022-08-11T04:01:02.212Z,17.34
2022-08-11T04:02:02.282Z,17.25
2022-08-11T04:03:02.265Z,17.22
2022-08-11T04:04:02.305Z,17.28
2022-08-11T04:05:02.315Z,17.26
2022-08-11T04:06:02.340Z,17.19
2022-08-11T04:07:02.366Z,17.25
2022-08-11T04:08:02.393Z,17.16
2022-08-11T04:09:02.423Z,17.15
2022-08-11T04:10:02.443Z,17.14
2022-08-11T04:11:02.468Z,17.16
2022-08-11T04:12:02.500Z,17.16
2022-08-11T04:13:02.523Z,17.21
2022-08-11T04:14:02.551Z,17.23
2022-08-11T04:15:02.571Z,17.19
2022-08-11T04:16:11.739Z,17.23
2022-08-11T04:17:02.628Z,17.19
2022-08-11T04:18:02.651Z,17.26
2022-08-11T04:19:02.682Z,17.30
2022-08-11T04:20:02.708Z,17.28
2022-08-11T04:21:02.731Z,17.28
2022-08-11T04:22:02.757Z,17.26
2022-08-11T04:23:02.784Z,17.28
2022-08-11T04:24:13.196Z,17.30
2022-08-11T04:25:02.845Z,17.33
2022-08-11T04:26:02.864Z,17.49
2022-08-11T04:27:05.025Z,17.48
2022-08-11T04:28:02.917Z,17.43
2022-08-11T04:29:02.944Z,17.58
2022-08-11T04:30:03.376Z,17.66
2022-08-11T04:31:02.995Z,17.86
2022-08-11T04:32:03.022Z,18.12
2022-08-11T04:33:03.057Z,18.20
2022-08-11T04:34:03.074Z,18.41
2022-08-11T04:35:03.100Z,18.52
2022-08-11T04:36:03.122Z,18.69
2022-08-11T04:37:03.153Z,18.85
2022-08-11T04:38:03.180Z,18.91
2022-08-11T04:39:03.205Z,19.06
2022-08-11T04:40:03.234Z,19.14
2022-08-11T04:41:03.261Z,19.06
2022-08-11T04:42:03.283Z,19.10
2022-08-11T04:43:03.314Z,19.04
2022-08-11T04:44:06.542Z,19.06
2022-08-11T04:45:03.368Z,18.99
2022-08-11T04:46:03.394Z,18.94
2022-08-11T04:47:03.429Z,18.92
2022-08-11T04:48:04.408Z,18.90
2022-08-11T04:49:03.483Z,18.85
2022-08-11T04:50:03.508Z,18.88
2022-08-11T04:51:16.413Z,18.91
2022-08-11T04:52:03.559Z,18.88
2022-08-11T04:53:03.585Z,18.84
2022-08-11T04:54:03.660Z,18.88
2022-08-11T04:55:03.636Z,18.84
2022-08-11T04:56:03.670Z,18.92
2022-08-11T04:57:03.695Z,18.94
2022-08-11T04:58:03.718Z,18.94
2022-08-11T04:59:03.744Z,18.95
2022-08-11T05:00:03.777Z,18.98
2022-08-11T05:01:03.804Z,19.08
2022-08-11T05:02:03.854Z,19.10
2022-08-11T05:03:03.866Z,19.10
2022-08-11T05:04:03.890Z,19.07
2022-08-11T05:05:03.910Z,19.14
2022-08-11T05:06:03.941Z,19.22
2022-08-11T05:07:03.966Z,19.21
2022-08-11T05:08:03.994Z,19.25
2022-08-11T05:09:04.022Z,19.28
2022-08-11T05:10:04.044Z,19.25
2022-08-11T05:11:04.082Z,19.28
2022-08-11T05:12:04.102Z,19.48
2022-08-11T05:13:04.132Z,19.48
2022-08-11T05:14:04.165Z,19.62
2022-08-11T05:15:04.179Z,19.65
2022-08-11T05:16:04.214Z,19.63
2022-08-11T05:17:04.237Z,19.69
2022-08-11T05:18:04.266Z,19.74
2022-08-11T05:19:04.292Z,19.76
2022-08-11T05:20:04.321Z,19.77
2022-08-11T05:21:05.152Z,19.86
2022-08-11T05:22:04.384Z,19.83
2022-08-11T05:23:04.402Z,19.92
2022-08-11T05:24:04.444Z,19.92
2022-08-11T05:25:04.459Z,19.95
2022-08-11T05:26:43.781Z,19.95
2022-08-11T05:27:04.543Z,19.94
2022-08-11T05:28:04.537Z,19.92
2022-08-11T05:29:20.061Z,19.96
2022-08-11T05:30:04.595Z,20.03
2022-08-11T05:31:04.625Z,20.05
2022-08-11T05:32:11.818Z,20.06
2022-08-11T05:35:18.458Z,20.10
2022-08-11T05:36:12.742Z,20.16
2022-08-11T05:38:16.773Z,20.13
2022-08-11T05:39:16.798Z,20.18
2022-08-11T05:41:21.259Z,20.24
2022-08-11T05:42:39.176Z,20.38
2022-08-11T05:44:25.306Z,20.39
2022-08-11T05:45:24.842Z,20.43
2022-08-11T05:47:17.790Z,20.67
2022-08-11T05:48:17.814Z,20.74
2022-08-11T05:50:32.880Z,21.03
2022-08-11T05:51:30.053Z,21.10
2022-08-11T05:53:25.872Z,21.17
2022-08-11T05:54:28.705Z,21.17
2022-08-11T05:56:30.391Z,21.19
2022-08-11T05:57:48.277Z,21.19
2022-08-11T05:59:34.434Z,21.28
2022-08-11T06:00:33.975Z,21.25
2022-08-11T06:02:38.180Z,21.24
2022-08-11T06:03:38.030Z,21.28
2022-08-11T06:05:43.891Z,21.47
2022-08-11T06:06:45.301Z,21.43
2022-08-11T06:08:46.092Z,21.96
2022-08-11T06:09:46.117Z,22.25
2022-08-11T06:11:50.620Z,22.98
2022-08-11T06:12:50.160Z,23.35
2022-08-11T06:14:54.184Z,24.09
2022-08-11T06:15:54.202Z,24.45
2022-08-11T06:17:47.694Z,25.21
2022-08-11T06:18:47.184Z,25.76
2022-08-11T06:20:40.334Z,26.66
2022-08-11T06:21:40.353Z,27.06
2022-08-11T06:23:44.860Z,27.75
2022-08-11T06:24:44.414Z,28.07
2022-08-11T06:27:09.050Z,28.77
2022-08-11T06:27:48.472Z,29.15
2022-08-11T06:29:55.330Z,29.74
2022-08-11T06:30:52.532Z,30.07
2022-08-11T06:32:56.619Z,30.39
2022-08-11T06:33:56.625Z,30.70
2022-08-11T06:36:01.131Z,30.99
2022-08-11T06:37:00.677Z,31.12
2022-08-11T06:39:04.727Z,31.07
2022-08-11T06:40:04.746Z,31.16
2022-08-11T06:42:09.261Z,31.10
2022-08-11T06:43:08.808Z,31.06
2022-08-11T06:45:12.860Z,31.07
2022-08-11T06:46:12.905Z,30.80
2022-08-11T06:48:17.496Z,30.70
2022-08-11T06:49:16.976Z,30.57
2022-08-11T06:51:20.998Z,30.79
2022-08-11T06:52:35.351Z,30.86
2022-08-11T06:54:25.532Z,30.62
2022-08-11T06:55:55.927Z,30.54
2022-08-11T06:57:33.404Z,30.45
2022-08-11T06:58:18.086Z,30.34
2022-08-11T07:00:22.590Z,30.47
2022-08-11T07:01:23.128Z,30.51
2022-08-11T07:02:22.182Z,30.58
2022-08-11T07:03:22.220Z,30.45
2022-08-11T07:04:22.253Z,30.29
2022-08-11T07:05:22.290Z,30.31
2022-08-11T07:06:22.327Z,30.29
2022-08-11T07:07:22.365Z,30.29
2022-08-11T07:08:34.902Z,30.24
2022-08-11T07:09:22.437Z,30.27
2022-08-11T07:10:22.472Z,30.34
2022-08-11T07:11:22.505Z,30.34
2022-08-11T07:12:22.547Z,30.24
2022-08-11T07:13:44.878Z,30.23
2022-08-11T07:14:22.631Z,30.08
2022-08-11T07:15:22.661Z,29.65
2022-08-11T07:16:25.013Z,29.49
2022-08-11T07:17:22.731Z,29.15
2022-08-11T07:18:22.764Z,28.96
2022-08-11T07:19:22.800Z,28.66
2022-08-11T07:20:22.834Z,28.48
2022-08-11T07:22:01.246Z,28.27
2022-08-11T07:22:22.903Z,28.22
2022-08-11T07:23:22.940Z,28.17
2022-08-11T07:24:22.972Z,27.99
2022-08-11T07:25:23.006Z,27.85
2022-08-11T07:26:23.046Z,27.93
2022-08-11T07:27:23.076Z,27.92
2022-08-11T07:28:23.108Z,27.78
2022-08-11T07:29:23.142Z,27.60
2022-08-11T07:30:23.285Z,27.49
2022-08-11T07:31:23.227Z,27.37
2022-08-11T07:32:23.245Z,27.41
2022-08-11T07:34:07.923Z,27.37
2022-08-11T07:34:23.310Z,27.27
2022-08-11T07:35:23.343Z,27.22
2022-08-11T07:36:23.375Z,27.21
2022-08-11T07:37:23.414Z,27.17
2022-08-11T07:38:25.495Z,27.17
2022-08-11T07:39:23.562Z,27.17
2022-08-11T07:40:23.506Z,27.12
2022-08-11T07:41:23.542Z,27.07
2022-08-11T07:42:23.573Z,27.13
2022-08-11T07:43:23.604Z,27.18
2022-08-11T07:44:23.645Z,27.21
2022-08-11T07:45:23.668Z,27.21
2022-08-11T07:46:23.700Z,27.36
2022-08-11T07:47:23.738Z,27.29
2022-08-11T07:48:23.767Z,27.37
2022-08-11T07:49:23.800Z,27.36
2022-08-11T07:50:23.839Z,27.31
2022-08-11T07:51:23.864Z,27.39
2022-08-11T07:52:23.895Z,27.34
2022-08-11T07:53:23.925Z,27.36
2022-08-11T07:54:23.958Z,27.32
2022-08-11T07:55:26.328Z,27.27
2022-08-11T07:56:39.526Z,27.28
2022-08-11T07:58:08.734Z,27.21
2022-08-11T07:58:24.921Z,27.25
2022-08-11T07:59:24.561Z,27.29
2022-08-11T08:00:24.296Z,27.24
2022-08-11T08:01:24.206Z,27.28
2022-08-11T08:02:24.217Z,27.24
2022-08-11T08:03:24.251Z,27.27
2022-08-11T08:04:24.284Z,27.21
2022-08-11T08:05:24.313Z,27.29
2022-08-11T08:06:35.726Z,27.40
2022-08-11T08:07:24.407Z,27.40
2022-08-11T08:08:24.412Z,27.37
2022-08-11T08:09:24.442Z,27.41
2022-08-11T08:10:24.473Z,27.40
2022-08-11T08:11:27.687Z,27.47
2022-08-11T08:12:24.541Z,27.50
2022-08-11T08:13:24.573Z,27.50
2022-08-11T08:14:24.604Z,27.44
2022-08-11T08:15:24.636Z,27.49
2022-08-11T08:16:24.670Z,27.54
2022-08-11T08:17:24.720Z,27.46
2022-08-11T08:18:26.787Z,27.50
2022-08-11T08:19:24.775Z,27.54
2022-08-11T08:20:24.795Z,27.55
2022-08-11T08:21:24.830Z,27.50
2022-08-11T08:22:38.347Z,27.60
2022-08-11T08:23:24.897Z,27.70
2022-08-11T08:24:24.926Z,27.75
2022-08-11T08:25:24.958Z,27.93
2022-08-11T08:26:24.992Z,27.97
2022-08-11T08:27:25.035Z,27.96
2022-08-11T08:28:28.978Z,28.06
2022-08-11T08:29:25.088Z,28.09
2022-08-11T08:30:25.120Z,28.07
2022-08-11T08:31:25.155Z,28.19
2022-08-11T08:32:25.185Z,28.12
2022-08-11T08:33:25.219Z,28.21
2022-08-11T08:34:25.253Z,28.29
2022-08-11T08:35:27.366Z,28.25
2022-08-11T08:36:25.315Z,28.33
2022-08-11T08:37:45.819Z,28.43
2022-08-11T08:38:25.381Z,28.34
2022-08-11T08:39:25.432Z,28.36
2022-08-11T08:40:25.444Z,28.36
2022-08-11T08:41:25.481Z,28.43
2022-08-11T08:42:25.587Z,28.41
2022-08-11T08:43:25.548Z,28.36
2022-08-11T08:44:41.887Z,28.37
2022-08-11T08:45:25.609Z,28.48
2022-08-11T08:46:25.645Z,28.52
2022-08-11T08:47:38.780Z,28.58
2022-08-11T08:48:25.723Z,28.56
2022-08-11T08:49:25.740Z,28.58
2022-08-11T08:50:27.474Z,28.58
2022-08-11T08:51:25.810Z,28.43
2022-08-11T08:52:31.932Z,28.52
2022-08-11T08:53:25.887Z,28.49
2022-08-11T08:54:25.903Z,28.62
2022-08-11T08:55:25.941Z,28.67
2022-08-11T08:56:25.968Z,28.67
2022-08-11T08:57:26.004Z,28.61
2022-08-11T08:58:26.038Z,28.70
2022-08-11T08:59:26.070Z,28.77
2022-08-11T09:00:26.112Z,28.74
2022-08-11T09:01:26.184Z,28.62
2022-08-11T09:02:33.878Z,28.67
2022-08-11T09:04:06.942Z,28.66
2022-08-11T09:04:26.232Z,28.68
2022-08-11T09:05:26.264Z,28.61
2022-08-11T09:06:26.298Z,28.61
2022-08-11T09:07:26.335Z,28.61
2022-08-11T09:08:26.365Z,28.58
2022-08-11T09:09:26.395Z,28.78
2022-08-11T09:10:26.427Z,28.74
2022-08-11T09:11:26.460Z,28.80
2022-08-11T09:12:38.090Z,28.90
2022-08-11T09:13:26.527Z,28.92
2022-08-11T09:14:26.584Z,28.90
2022-08-11T09:15:26.591Z,29.00
2022-08-11T09:16:26.626Z,29.04
2022-08-11T09:17:26.657Z,29.02
2022-08-11T09:18:31.646Z,29.14
2022-08-11T09:19:26.725Z,29.16
2022-08-11T09:20:26.760Z,29.27
2022-08-11T09:21:41.765Z,29.37
2022-08-11T09:22:26.822Z,29.45
2022-08-11T09:24:06.786Z,29.51
2022-08-11T09:24:26.894Z,29.60
2022-08-11T09:25:26.922Z,29.58
2022-08-11T09:26:30.866Z,29.68
2022-08-11T09:27:26.986Z,29.70
2022-08-11T09:28:27.021Z,29.64
2022-08-11T09:29:27.055Z,29.64
2022-08-11T09:30:27.089Z,29.67
2022-08-11T09:31:27.125Z,29.60
2022-08-11T09:32:27.153Z,29.58
2022-08-11T09:33:27.188Z,29.61
2022-08-11T09:34:27.219Z,29.67
2022-08-11T09:35:27.256Z,29.68
2022-08-11T09:36:27.287Z,29.65
2022-08-11T09:37:53.274Z,29.61
2022-08-11T09:38:27.354Z,29.64
2022-08-11T09:39:27.447Z,29.82
2022-08-11T09:40:27.539Z,29.78
2022-08-11T09:41:27.452Z,29.65
2022-08-11T09:42:27.487Z,29.65
2022-08-11T09:43:27.518Z,29.60
2022-08-11T09:44:27.553Z,29.51
2022-08-11T09:45:27.587Z,29.46
2022-08-11T09:46:27.620Z,29.43
2022-08-11T09:47:27.656Z,29.45
2022-08-11T09:48:27.686Z,29.45
2022-08-11T09:49:27.723Z,29.43
2022-08-11T09:50:27.752Z,29.51
2022-08-11T09:51:27.789Z,29.53
2022-08-11T09:52:27.818Z,29.60
2022-08-11T09:53:36.511Z,29.65
2022-08-11T09:54:27.888Z,29.65
2022-08-11T09:55:27.923Z,29.67
2022-08-11T09:56:28.011Z,29.70
2022-08-11T09:57:28.136Z,29.73
2022-08-11T09:58:42.394Z,29.94
2022-08-11T09:59:28.055Z,29.89
2022-08-11T10:00:28.087Z,29.95
2022-08-11T10:01:28.270Z,29.97
2022-08-11T10:02:28.156Z,30.15
2022-08-11T10:03:28.187Z,30.24
2022-08-11T10:04:28.222Z,30.23
2022-08-11T10:05:28.255Z,30.32
2022-08-11T10:06:32.851Z,30.24
2022-08-11T10:07:28.321Z,30.32
2022-08-11T10:08:28.359Z,30.23
2022-08-11T10:09:28.385Z,30.22
2022-08-11T10:10:28.418Z,30.38
2022-08-11T10:11:28.462Z,30.27
2022-08-11T10:12:28.487Z,30.23
2022-08-11T10:14:31.947Z,30.26
2022-08-11T10:14:33.815Z,30.26
2022-08-11T10:15:28.590Z,30.26
2022-08-11T10:16:28.621Z,30.20
2022-08-11T10:17:28.671Z,30.26
2022-08-11T10:18:28.692Z,30.22
2022-08-11T10:19:28.725Z,30.22
2022-08-11T10:20:28.757Z,30.23
2022-08-11T10:21:28.794Z,30.31
2022-08-11T10:22:28.826Z,30.23
2022-08-11T10:23:28.861Z,30.23
2022-08-11T10:24:28.895Z,30.24
2022-08-11T10:25:28.926Z,30.22
2022-08-11T10:26:28.961Z,30.15
2022-08-11T10:28:28.223Z,30.15
2022-08-11T10:28:40.400Z,30.16
2022-08-11T10:29:33.434Z,30.16
2022-08-11T10:30:29.095Z,30.11
2022-08-11T10:31:29.131Z,30.10
2022-08-11T10:32:31.473Z,30.08
2022-08-11T10:33:36.870Z,30.15
2022-08-11T10:34:29.375Z,30.15
2022-08-11T10:35:29.266Z,30.22
2022-08-11T10:36:29.296Z,30.19
2022-08-11T10:38:08.876Z,30.24
2022-08-11T10:38:29.361Z,30.23
2022-08-11T10:39:29.455Z,30.27
2022-08-11T10:40:29.426Z,30.32
2022-08-11T10:41:29.461Z,30.35
2022-08-11T10:42:41.680Z,30.47
2022-08-11T10:44:01.378Z,30.45
2022-08-11T10:44:29.564Z,30.49
2022-08-11T10:45:29.600Z,30.58
2022-08-11T10:46:30.350Z,30.62
2022-08-11T10:47:29.709Z,30.62
2022-08-11T10:48:29.704Z,30.72
2022-08-11T10:49:29.733Z,30.80
2022-08-11T10:50:29.775Z,30.86
2022-08-11T10:51:50.951Z,30.88
2022-08-11T10:52:29.899Z,30.88
2022-08-11T10:53:29.884Z,30.88
2022-08-11T10:54:29.915Z,30.86
2022-08-11T10:55:29.953Z,30.99
2022-08-11T10:56:29.977Z,30.98
2022-08-11T10:57:30.094Z,30.99
2022-08-11T10:58:30.043Z,31.07
2022-08-11T10:59:30.076Z,30.82
2022-08-11T11:00:30.112Z,30.82
2022-08-11T11:01:30.211Z,30.75
2022-08-11T11:02:30.176Z,30.67
2022-08-11T11:03:30.218Z,30.64
2022-08-11T11:04:31.171Z,30.69
2022-08-11T11:05:30.279Z,30.57
2022-08-11T11:06:30.317Z,30.57
2022-08-11T11:07:30.346Z,30.55
2022-08-11T11:08:30.382Z,30.45
2022-08-11T11:09:30.417Z,30.54
2022-08-11T11:10:30.447Z,30.54
2022-08-11T11:11:30.484Z,30.54
2022-08-11T11:12:30.517Z,30.55
2022-08-11T11:13:30.551Z,30.54
2022-08-11T11:14:30.586Z,30.45
2022-08-11T11:15:30.618Z,30.57
2022-08-11T11:16:30.652Z,30.54
2022-08-11T11:17:30.685Z,30.58
2022-08-11T11:18:30.721Z,30.65
2022-08-11T11:19:30.760Z,30.62
2022-08-11T11:20:35.866Z,30.62
2022-08-11T11:21:30.819Z,30.62
2022-08-11T11:22:30.856Z,30.54
2022-08-11T11:23:30.889Z,30.53
2022-08-11T11:24:30.942Z,30.55
2022-08-11T11:25:30.957Z,30.55
2022-08-11T11:26:30.991Z,30.49
2022-08-11T11:27:31.027Z,30.61
2022-08-11T11:28:31.059Z,30.57
2022-08-11T11:29:31.095Z,30.57
2022-08-11T11:30:31.132Z,30.67
2022-08-11T11:31:31.165Z,30.58
2022-08-11T11:32:31.195Z,30.69
2022-08-11T11:33:31.283Z,30.72
2022-08-11T11:34:31.265Z,30.72
2022-08-11T11:35:31.301Z,30.75
2022-08-11T11:36:31.334Z,30.67
2022-08-11T11:37:31.364Z,30.69
2022-08-11T11:38:31.399Z,30.69
2022-08-11T11:39:31.532Z,30.67
2022-08-11T11:40:32.099Z,30.70
2022-08-11T11:41:31.502Z,30.69
2022-08-11T11:42:31.567Z,30.64
2022-08-11T11:43:31.573Z,30.64
2022-08-11T11:44:31.604Z,30.54
2022-08-11T11:45:31.640Z,30.58
2022-08-11T11:46:31.682Z,30.61
2022-08-11T11:47:31.704Z,30.57
2022-08-11T11:48:31.738Z,30.57
2022-08-11T11:49:31.788Z,30.67
2022-08-11T11:50:33.134Z,30.61
2022-08-11T11:51:31.836Z,30.67
2022-08-11T11:52:31.918Z,30.69
2022-08-11T11:53:31.910Z,30.62
2022-08-11T11:54:31.941Z,30.70
2022-08-11T11:55:31.985Z,30.77
2022-08-11T11:56:33.012Z,30.86
2022-08-11T11:57:32.049Z,30.88
2022-08-11T11:58:32.079Z,30.98
2022-08-11T11:59:32.109Z,30.91
2022-08-11T12:00:33.306Z,30.97
2022-08-11T12:01:32.207Z,30.98
2022-08-11T12:02:32.215Z,30.97
2022-08-11T12:03:32.282Z,30.86
2022-08-11T12:04:32.284Z,31.01
2022-08-11T12:05:32.312Z,30.99
2022-08-11T12:06:32.352Z,31.02
2022-08-11T12:07:32.386Z,31.09
2022-08-11T12:08:32.420Z,31.09
2022-08-11T12:09:32.454Z,30.99
2022-08-11T12:10:32.498Z,31.10
2022-08-11T12:11:32.518Z,31.17
2022-08-11T12:12:32.554Z,31.19
2022-08-11T12:13:32.590Z,31.29
2022-08-11T12:14:39.799Z,31.26
2022-08-11T12:16:37.135Z,31.25
2022-08-11T12:17:36.682Z,31.34
2022-08-11T12:19:41.193Z,31.31
2022-08-11T12:20:40.748Z,31.36
2022-08-11T12:22:33.907Z,31.47
2022-08-11T12:23:33.928Z,31.47
2022-08-11T12:25:38.439Z,31.61
2022-08-11T12:26:37.995Z,31.72
2022-08-11T12:28:31.153Z,31.89
2022-08-11T12:29:31.176Z,31.84
2022-08-11T12:31:35.696Z,31.85
2022-08-11T12:32:35.265Z,31.72
2022-08-11T12:34:39.295Z,31.72
2022-08-11T12:35:39.317Z,31.58
2022-08-11T12:37:32.317Z,31.65
2022-08-11T12:38:32.313Z,31.62
2022-08-11T12:40:49.669Z,31.57
2022-08-11T12:41:36.402Z,31.44
2022-08-11T12:43:40.420Z,31.50
2022-08-11T12:44:40.509Z,31.39
2022-08-11T12:46:44.945Z,31.56
2022-08-11T12:47:44.508Z,31.44
2022-08-11T12:49:48.544Z,31.58
2022-08-11T12:50:48.562Z,31.62
2022-08-11T12:52:53.092Z,31.50
2022-08-11T12:53:52.633Z,31.61
2022-08-11T12:56:03.743Z,31.41
2022-08-11T12:56:56.710Z,31.58
2022-08-11T12:59:01.218Z,31.63
2022-08-11T13:00:00.787Z,31.63
2022-08-11T13:02:04.829Z,31.62
2022-08-11T13:03:04.854Z,31.61
2022-08-11T13:05:09.380Z,31.53
2022-08-11T13:06:08.922Z,31.43
2022-08-11T13:08:12.950Z,31.26
2022-08-11T13:09:12.979Z,31.23
2022-08-11T13:11:17.491Z,31.26
2022-08-11T13:12:17.053Z,31.29
2022-08-11T13:14:21.120Z,31.31
2022-08-11T13:15:21.142Z,31.25
2022-08-11T13:17:14.133Z,31.23
2022-08-11T13:18:14.130Z,31.47
2022-08-11T13:20:18.643Z,31.41
2022-08-11T13:21:20.371Z,31.53
2022-08-11T13:23:22.242Z,31.47
2022-08-11T13:24:22.269Z,31.54
2022-08-11T13:26:15.763Z,31.38
2022-08-11T13:27:15.461Z,31.47
2022-08-11T13:29:19.492Z,31.46
2022-08-11T13:30:19.519Z,31.48
2022-08-11T13:32:24.030Z,31.56
2022-08-11T13:33:23.598Z,31.66
2022-08-11T13:35:27.631Z,31.88
2022-08-11T13:36:27.677Z,31.86
2022-08-11T13:38:32.486Z,32.04
2022-08-11T13:39:31.784Z,32.10
2022-08-11T13:41:35.785Z,31.88
2022-08-11T13:42:35.814Z,31.85
2022-08-11T13:44:40.326Z,31.68
2022-08-11T13:45:39.876Z,31.61
2022-08-11T13:46:39.910Z,31.63
2022-08-11T13:47:40.199Z,31.58
2022-08-11T13:48:39.978Z,31.57
2022-08-11T13:49:40.298Z,31.75
2022-08-11T13:50:40.087Z,31.73
2022-08-11T13:51:40.188Z,31.81
2022-08-11T13:52:40.119Z,31.85
2022-08-11T13:53:40.152Z,31.86
2022-08-11T13:54:40.185Z,31.86
2022-08-11T13:55:51.910Z,31.88
2022-08-11T13:56:40.253Z,31.89
2022-08-11T13:58:06.629Z,31.75
2022-08-11T13:58:41.130Z,31.75
2022-08-11T13:59:51.908Z,31.70
2022-08-11T14:00:40.396Z,31.73
2022-08-11T14:02:21.285Z,31.78
2022-08-11T14:02:40.501Z,31.75
2022-08-11T14:04:30.583Z,31.80
2022-08-11T14:04:40.532Z,31.81
2022-08-11T14:05:40.564Z,31.89
2022-08-11T14:06:40.600Z,31.88
2022-08-11T14:07:40.790Z,31.81